Aérodrome :
LOGIN :

S'inscrire | Disclaimer

   EN    FR    IT 

 










Légende :    VFR   VFR Marginal   IFR   IFR Intensif   IFR Très Intensif
Visi : 
Plafond : 
>= 8 km
>= 3000ft
5 à 8 km
1000 à 3000 ft
1500m à 5 km
500 à 1000 ft
800 à 1500m
200 à 500 ft
< 800m
< 200 ft
Symboles :   Orages  Brouillard  Fortes neiges  Fortes précipitations  Vent > 20 kt
SIGMETs :   Divers  Orages  Givrage  Turbulence  Onde Orograph.  Cendres Volcan.






- Altitude de l'aérodrome : 160 ft
- Code IATA : FMO


EDDG - Münster Osnabrück Int.

DERNIER METAR :
  • 201520Z 03005KT 360V070 3500 BR OVC003 02/01 Q1017 BECMG 5000 SCT003

METARs EXPIRÉS :
  • 201450Z 06003KT 350V160 3000 BR OVC003 02/01 Q1017 BECMG 5000 SCT003
  • 201420Z 06004KT 360V120 1500 BR OVC002 02/02 Q1017 BECMG 3000 SCT003
  • 201350Z VRB01KT 1500 BR OVC002 02/02 Q1018 TEMPO 3000 BKN003
  • 201320Z 11004KT 070V160 1200 R25/P2000N BR OVC002 02/01 Q1018 TEMPO 1500 BKN003
  • 201250Z VRB02KT 0900 R25/1900D FG OVC001 02/02 Q1018 TEMPO 1500 BKN003

TAF TAF EDDG
Valide du 20 à 12h jusqu'au 21 à 12h UTC


201100Z 2012/2112 VRB03KT 0500 FG OVC001
TEMPO 2012/2016 1500 BR BKN005
TEMPO 2016/2024 0200 FG OVC000
BECMG 2100/2103 07005KT 1500 BR SCT002 BKN015
PROB30
TEMPO 2103/2108 0800 FG BKN002
BECMG 2108/2111 3000 BR BKN007



MET'MAP, la Météo Aéronautique d'un coup d'oeil ! - Copyright ORBIFLY Décembre 2007 - Disclaimer

ORBIFLY MET'MAP TEAM :

Programmation & Développement : Alexandra Zaïnal
Conception & Développement : Baudouin d'Aumeries
Co-Programmation & Développement : Marc-Olivier Méhu
Soutien technique & logistique : Manuel Goepfert

Contact : metmap@orbifly.com




SOURCES & CREDITS :

   NOAA